createdAt,value
2022-09-23T00:01:12.542Z,101003.00
2022-09-23T00:03:39.005Z,101002.19
2022-09-23T00:06:05.342Z,101004.19
2022-09-23T00:08:31.675Z,101003.78
2022-09-23T00:10:57.986Z,101001.81
2022-09-23T00:13:24.272Z,101002.97
2022-09-23T00:15:50.596Z,101000.19
2022-09-23T00:18:17.809Z,101002.19
2022-09-23T00:20:44.148Z,100996.25
2022-09-23T00:23:10.470Z,100998.59
2022-09-23T00:25:36.823Z,101001.78
2022-09-23T00:28:03.106Z,100996.63
2022-09-23T00:30:29.542Z,101000.19
2022-09-23T00:32:55.901Z,100993.44
2022-09-23T00:35:22.219Z,100998.19
2022-09-23T00:37:48.520Z,100992.63
2022-09-23T00:40:14.900Z,100991.84
2022-09-23T00:42:41.294Z,100994.63
2022-09-23T00:45:07.605Z,100993.41
2022-09-23T00:47:33.927Z,100994.63
2022-09-23T00:50:00.250Z,100992.63
2022-09-23T00:52:26.536Z,100994.19
2022-09-23T00:54:52.847Z,100991.78
2022-09-23T00:57:19.163Z,100996.13
2022-09-23T00:59:45.504Z,101000.13
2022-09-23T01:02:11.881Z,100995.75
2022-09-23T01:04:38.282Z,100994.97
2022-09-23T01:07:04.605Z,100987.41
2022-09-23T01:09:30.954Z,100992.97
2022-09-23T01:11:57.270Z,100983.84
2022-09-23T01:14:23.592Z,100985.84
2022-09-23T01:16:49.975Z,100987.78
2022-09-23T01:19:16.350Z,100988.63
2022-09-23T01:21:42.661Z,100983.06
2022-09-23T01:24:08.985Z,100987.41
2022-09-23T01:26:35.426Z,100976.28
2022-09-23T01:29:01.748Z,100985.44
2022-09-23T01:31:28.063Z,100979.88
2022-09-23T01:33:54.383Z,100977.47
2022-09-23T01:36:20.718Z,100985.00
2022-09-23T01:38:47.074Z,100983.06
2022-09-23T01:41:13.395Z,100979.88
2022-09-23T01:43:39.795Z,100980.66
2022-09-23T01:46:06.122Z,100982.22
2022-09-23T01:48:32.464Z,100980.66
2022-09-23T01:50:58.821Z,100972.31
2022-09-23T01:53:25.141Z,100977.09
2022-09-23T01:55:51.486Z,100976.66
2022-09-23T01:58:17.807Z,100973.50
2022-09-23T02:00:44.105Z,100974.69
2022-09-23T02:03:10.428Z,100967.91
2022-09-23T02:05:36.742Z,100973.88
2022-09-23T02:08:03.075Z,100970.69
2022-09-23T02:10:29.397Z,100966.75
2022-09-23T02:12:55.736Z,100975.47
2022-09-23T02:15:22.082Z,100972.69
2022-09-23T02:17:48.434Z,100970.31
2022-09-23T02:20:14.767Z,100977.09
2022-09-23T02:22:41.136Z,100972.69
2022-09-23T02:25:07.482Z,100981.84
2022-09-23T02:27:33.872Z,100966.75
2022-09-23T02:30:00.202Z,100977.88
2022-09-23T02:32:26.520Z,100971.91
2022-09-23T02:34:52.845Z,100975.47
2022-09-23T02:37:19.177Z,100975.09
2022-09-23T02:39:45.491Z,100968.31
2022-09-23T02:42:12.694Z,100975.88
2022-09-23T02:44:39.012Z,100981.44
2022-09-23T02:47:05.354Z,100976.66
2022-09-23T02:49:31.697Z,100977.03
2022-09-23T02:51:58.020Z,100977.47
2022-09-23T02:54:24.327Z,100985.00
2022-09-23T02:56:50.670Z,100977.47
2022-09-23T02:59:17.020Z,100975.06
2022-09-23T03:01:43.714Z,100977.47
2022-09-23T03:04:10.058Z,100985.00
2022-09-23T03:06:36.380Z,100976.25
2022-09-23T03:09:02.785Z,100982.97
2022-09-23T03:11:29.237Z,100986.19
2022-09-23T03:13:55.564Z,100987.38
2022-09-23T03:16:21.926Z,100983.81
2022-09-23T03:18:48.285Z,100979.44
2022-09-23T03:21:14.739Z,100980.66
2022-09-23T03:23:41.062Z,100977.84
2022-09-23T03:26:07.394Z,100982.22
2022-09-23T03:28:33.746Z,100976.66
2022-09-23T03:31:00.074Z,100975.47
2022-09-23T03:33:28.665Z,100976.66
2022-09-23T03:35:55.352Z,100973.88
2022-09-23T03:38:21.670Z,100969.91
2022-09-23T03:40:48.019Z,100969.50
2022-09-23T03:43:14.390Z,100967.50
2022-09-23T03:45:40.757Z,100967.50
2022-09-23T03:48:07.089Z,100964.72
2022-09-23T03:50:33.447Z,100961.16
2022-09-23T03:52:59.758Z,100963.53
2022-09-23T03:55:26.052Z,100960.75
2022-09-23T03:57:52.418Z,100965.50
2022-09-23T04:00:18.758Z,100971.06
2022-09-23T04:02:45.080Z,100967.50
2022-09-23T04:05:11.463Z,100969.50
2022-09-23T04:07:37.796Z,100964.34
2022-09-23T04:10:04.124Z,100960.75
2022-09-23T04:12:30.466Z,100961.56
2022-09-23T04:14:56.808Z,100969.50
2022-09-23T04:17:23.160Z,100964.34
2022-09-23T04:19:49.531Z,100969.91
2022-09-23T04:22:15.840Z,100961.94
2022-09-23T04:24:42.144Z,100971.47
2022-09-23T04:27:08.496Z,100966.34
2022-09-23T04:29:34.815Z,100966.72
2022-09-23T04:32:01.244Z,100973.06
2022-09-23T04:34:27.594Z,100975.06
2022-09-23T04:36:53.911Z,100973.88
2022-09-23T04:39:20.246Z,100981.41
2022-09-23T04:41:46.545Z,100975.06
2022-09-23T04:44:12.878Z,100978.66
2022-09-23T04:46:39.338Z,100973.09
2022-09-23T04:49:05.782Z,100971.09
2022-09-23T04:51:32.120Z,100969.13
2022-09-23T04:53:58.453Z,100971.53
2022-09-23T04:56:24.781Z,100970.31
2022-09-23T04:58:51.139Z,100967.91
2022-09-23T05:01:17.497Z,100970.31
2022-09-23T05:03:43.870Z,100964.34
2022-09-23T05:06:10.215Z,100974.25
2022-09-23T05:08:36.554Z,100974.53
2022-09-23T05:11:02.982Z,100976.44
2022-09-23T05:13:30.195Z,100964.06
2022-09-23T05:15:57.444Z,100966.38
2022-09-23T05:18:23.831Z,100966.81
2022-09-23T05:20:50.171Z,100959.75
2022-09-23T05:23:17.346Z,100966.19
2022-09-23T05:25:43.690Z,100970.97
2022-09-23T05:28:10.045Z,100965.81
2022-09-23T05:30:36.443Z,100969.78
2022-09-23T05:33:02.781Z,100971.38
2022-09-23T05:35:29.080Z,100968.22
2022-09-23T05:37:55.409Z,100971.00
2022-09-23T05:40:21.773Z,100972.97
2022-09-23T05:42:48.122Z,100969.78
2022-09-23T05:45:15.541Z,100976.94
2022-09-23T05:47:42.468Z,100976.16
2022-09-23T05:50:08.841Z,100983.69
2022-09-23T05:52:35.177Z,100987.28
2022-09-23T05:55:01.870Z,100982.91
2022-09-23T05:57:28.196Z,100986.47
2022-09-23T05:59:57.638Z,100984.91
2022-09-23T06:02:24.259Z,100984.91
2022-09-23T06:04:50.764Z,100984.13
2022-09-23T06:07:17.459Z,100983.31
2022-09-23T06:09:43.812Z,100983.31
2022-09-23T06:15:03.920Z,100985.31
2022-09-23T06:17:30.299Z,100983.72
2022-09-23T06:19:56.631Z,100982.94
2022-09-23T06:22:22.946Z,100980.53
2022-09-23T06:24:49.277Z,100983.72
2022-09-23T06:29:59.398Z,100994.41
2022-09-23T06:32:25.715Z,100988.81
2022-09-23T06:34:52.244Z,100986.38
2022-09-23T06:37:20.624Z,100988.38
2022-09-23T06:39:47.374Z,100983.97
2022-09-23T06:45:10.400Z,100988.25
2022-09-23T06:47:36.854Z,100980.38
2022-09-23T06:50:03.307Z,100983.94
2022-09-23T06:52:29.730Z,100980.69
2022-09-23T06:54:58.018Z,100975.59
2022-09-23T07:00:08.494Z,100978.94
2022-09-23T07:02:34.946Z,100984.91
2022-09-23T07:05:01.384Z,100989.72
2022-09-23T07:07:28.603Z,100988.50
2022-09-23T07:09:54.940Z,100990.50
2022-09-23T07:15:05.250Z,100988.66
2022-09-23T07:17:31.597Z,100987.50
2022-09-23T07:19:58.795Z,100995.47
2022-09-23T07:22:25.116Z,100989.91
2022-09-23T07:24:51.420Z,100994.69
2022-09-23T07:30:22.099Z,100986.34
2022-09-23T07:32:50.674Z,100989.91
2022-09-23T07:35:17.930Z,100985.53
2022-09-23T07:37:44.272Z,100982.34
2022-09-23T07:40:10.682Z,100984.34
2022-09-23T07:45:20.884Z,100990.31
2022-09-23T07:47:47.210Z,100989.91
2022-09-23T07:50:13.527Z,100980.75
2022-09-23T07:52:39.843Z,100979.16
2022-09-23T07:55:06.196Z,100978.38
2022-09-23T08:00:16.208Z,100984.34
2022-09-23T08:02:42.615Z,100980.75
2022-09-23T08:05:09.838Z,100979.16
2022-09-23T08:07:36.198Z,100977.16
2022-09-23T08:10:02.552Z,100977.56
2022-09-23T08:15:23.104Z,100969.59
2022-09-23T08:17:49.437Z,100975.53
2022-09-23T08:20:15.767Z,100974.38
2022-09-23T08:22:42.110Z,100967.19
2022-09-23T08:25:10.258Z,100961.22
2022-09-23T08:30:21.584Z,100962.81
2022-09-23T08:32:48.042Z,100962.41
2022-09-23T08:35:14.376Z,100962.41
2022-09-23T08:37:40.731Z,100956.03
2022-09-23T08:40:07.223Z,100954.84
2022-09-23T08:45:17.444Z,100953.66
2022-09-23T08:47:43.774Z,100949.69
2022-09-23T08:50:10.128Z,100951.66
2022-09-23T08:52:36.468Z,100952.47
2022-09-23T08:55:02.810Z,100953.66
2022-09-23T09:00:23.370Z,100952.03
2022-09-23T09:02:49.795Z,100942.50
2022-09-23T09:05:16.159Z,100957.59
2022-09-23T09:07:42.463Z,100949.66
2022-09-23T09:10:09.674Z,100943.69
2022-09-23T09:15:20.009Z,100939.69
2022-09-23T09:17:46.350Z,100933.34
2022-09-23T09:20:13.555Z,100936.91
2022-09-23T09:22:39.894Z,100932.56
2022-09-23T09:25:06.268Z,100929.34
2022-09-23T09:30:16.661Z,100926.16
2022-09-23T09:32:42.975Z,100920.59
2022-09-23T09:35:10.166Z,100924.59
2022-09-23T09:37:36.517Z,100922.59
2022-09-23T09:40:02.827Z,100925.38
2022-09-23T09:45:23.235Z,100919.44
2022-09-23T09:47:49.537Z,100922.59
2022-09-23T09:50:15.854Z,100917.81
2022-09-23T09:52:44.916Z,100911.84
2022-09-23T09:55:11.301Z,100913.03
2022-09-23T10:00:31.676Z,100912.63
2022-09-23T10:02:58.026Z,100914.25
2022-09-23T10:05:24.321Z,100911.06
2022-09-23T10:07:50.627Z,100909.47
2022-09-23T10:10:31.776Z,100903.09
2022-09-23T10:15:53.202Z,100897.94
2022-09-23T10:18:19.557Z,100890.38
2022-09-23T10:20:45.860Z,100885.59
2022-09-23T10:23:12.161Z,100893.16
2022-09-23T10:25:38.457Z,100887.19
2022-09-23T10:30:58.889Z,100879.63
2022-09-23T10:33:25.226Z,100878.06
2022-09-23T10:35:51.541Z,100878.84
2022-09-23T10:38:17.874Z,100878.47
2022-09-23T10:40:44.325Z,100868.91
2022-09-23T10:46:04.850Z,100873.28
2022-09-23T10:48:31.227Z,100872.50
2022-09-23T10:50:59.386Z,100877.66
2022-09-23T10:53:25.899Z,100870.91
2022-09-23T10:55:52.218Z,100874.06
2022-09-23T11:01:03.410Z,100865.34
2022-09-23T11:03:29.769Z,100864.16
2022-09-23T11:05:56.152Z,100862.56
2022-09-23T11:08:22.481Z,100869.72
2022-09-23T11:10:48.778Z,100866.50
2022-09-23T11:16:08.980Z,100863.34
2022-09-23T11:18:35.436Z,100849.03
2022-09-23T11:21:01.768Z,100853.41
2022-09-23T11:23:28.101Z,100857.38
2022-09-23T11:25:54.455Z,100846.66
2022-09-23T11:31:04.522Z,100851.81
2022-09-23T11:33:30.864Z,100844.69
2022-09-23T11:35:57.198Z,100845.06
2022-09-23T11:38:23.481Z,100837.13
2022-09-23T11:40:49.852Z,100842.69
2022-09-23T11:43:16.241Z,100840.28
2022-09-23T11:45:42.914Z,100838.31
2022-09-23T11:48:09.308Z,100829.19
2022-09-23T11:50:35.638Z,100832.38
2022-09-23T11:53:01.950Z,100830.41
2022-09-23T11:55:28.272Z,100831.19
2022-09-23T11:57:54.581Z,100832.38
2022-09-23T12:00:20.877Z,100830.41
2022-09-23T12:02:58.612Z,100828.75
2022-09-23T12:05:27.643Z,100830.38
2022-09-23T12:07:54.091Z,100827.59
2022-09-23T12:10:20.469Z,100824.78
2022-09-23T12:12:46.863Z,100819.22
2022-09-23T12:15:13.177Z,100815.25
2022-09-23T12:17:39.529Z,100816.06
2022-09-23T12:20:05.962Z,100806.13
2022-09-23T12:22:32.271Z,100808.09
2022-09-23T12:24:58.575Z,100804.94
2022-09-23T12:27:24.853Z,100804.53
2022-09-23T12:29:51.268Z,100798.19
2022-09-23T12:32:17.603Z,100804.16
2022-09-23T12:34:43.908Z,100804.16
2022-09-23T12:37:10.235Z,100800.97
2022-09-23T12:39:36.564Z,100805.31
2022-09-23T12:42:02.873Z,100797.78
2022-09-23T12:44:29.203Z,100800.16
2022-09-23T12:46:55.529Z,100798.56
2022-09-23T12:49:21.845Z,100793.41
2022-09-23T12:51:48.185Z,100791.41
2022-09-23T12:54:14.513Z,100792.22
2022-09-23T12:56:41.154Z,100777.47
2022-09-23T12:59:07.467Z,100784.25
2022-09-23T13:04:17.783Z,100777.88
2022-09-23T13:06:44.119Z,100780.25
2022-09-23T13:09:10.437Z,100778.28
2022-09-23T13:11:36.713Z,100773.88
2022-09-23T13:14:03.178Z,100770.69
2022-09-23T13:19:16.151Z,100781.00
2022-09-23T13:21:42.437Z,100775.00
2022-09-23T13:24:08.762Z,100778.19
2022-09-23T13:26:35.113Z,100777.78
2022-09-23T13:29:01.405Z,100776.63
2022-09-23T13:34:11.578Z,100759.06
2022-09-23T13:36:37.877Z,100758.63
2022-09-23T13:39:04.265Z,100752.69
2022-09-23T13:41:30.546Z,100755.47
2022-09-23T13:43:56.883Z,100751.91
2022-09-23T13:49:17.297Z,100741.25
2022-09-23T13:51:46.407Z,100750.81
2022-09-23T13:54:12.725Z,100748.06
2022-09-23T13:56:39.037Z,100747.25
2022-09-23T13:59:05.348Z,100744.06
2022-09-23T14:04:16.589Z,100740.84
2022-09-23T14:06:42.923Z,100730.88
2022-09-23T14:09:09.253Z,100740.41
2022-09-23T14:11:36.447Z,100740.00
2022-09-23T14:14:02.825Z,100747.94
2022-09-23T14:19:15.941Z,100734.44
2022-09-23T14:21:42.279Z,100735.66
2022-09-23T14:24:08.620Z,100727.25
2022-09-23T14:26:34.911Z,100731.19
2022-09-23T14:29:01.249Z,100732.41
2022-09-23T14:34:11.721Z,100723.66
2022-09-23T14:36:38.032Z,100725.63
2022-09-23T14:39:04.368Z,100725.25
2022-09-23T14:41:30.678Z,100724.84
2022-09-23T14:43:59.786Z,100729.63
2022-09-23T14:49:10.150Z,100724.84
2022-09-23T14:51:39.305Z,100721.25
2022-09-23T14:54:05.624Z,100715.72
2022-09-23T14:56:31.962Z,100715.34
2022-09-23T14:59:01.086Z,100717.31
2022-09-23T15:04:11.313Z,100708.94
2022-09-23T15:06:37.624Z,100700.22
2022-09-23T15:09:06.763Z,100709.81
2022-09-23T15:11:33.088Z,100709.00
2022-09-23T15:14:09.450Z,100706.59
2022-09-23T15:19:29.807Z,100706.22
2022-09-23T15:21:56.121Z,100708.59
2022-09-23T15:24:25.235Z,100701.06
2022-09-23T15:26:51.517Z,100700.28
2022-09-23T15:29:17.917Z,100704.25
2022-09-23T15:34:30.904Z,100700.28
2022-09-23T15:36:57.239Z,100694.72
2022-09-23T15:39:32.030Z,100699.09
2022-09-23T15:42:02.230Z,100703.50
2022-09-23T15:44:28.571Z,100701.91
2022-09-23T15:49:48.533Z,100701.91
2022-09-23T15:52:15.741Z,100703.88
2022-09-23T15:54:42.067Z,100705.09
2022-09-23T15:57:08.430Z,100703.53
2022-09-23T15:59:34.773Z,100700.34
2022-09-23T16:04:54.843Z,100709.53
2022-09-23T16:07:21.340Z,100708.31
2022-09-23T16:09:47.687Z,100704.38
2022-09-23T16:12:14.899Z,100704.34
2022-09-23T16:14:41.314Z,100704.34
2022-09-23T16:19:51.720Z,100708.72
2022-09-23T16:22:18.066Z,100703.53
2022-09-23T16:24:44.417Z,100712.69
2022-09-23T16:27:10.752Z,100713.09
2022-09-23T16:29:37.091Z,100715.06
2022-09-23T16:34:47.579Z,100712.69
2022-09-23T16:37:14.785Z,100707.94
2022-09-23T16:39:41.141Z,100716.66
2022-09-23T16:42:07.489Z,100708.72
2022-09-23T16:44:33.875Z,100712.72
2022-09-23T16:49:44.027Z,100707.16
2022-09-23T16:52:10.390Z,100704.38
2022-09-23T16:54:36.714Z,100699.97
2022-09-23T16:57:03.076Z,100699.59
2022-09-23T16:59:29.416Z,100704.38
2022-09-23T17:04:49.520Z,100697.19
2022-09-23T17:07:15.891Z,100696.78
2022-09-23T17:09:42.234Z,100699.19
2022-09-23T17:12:08.612Z,100695.19
2022-09-23T17:14:34.947Z,100694.00
2022-09-23T17:19:45.004Z,100697.56
2022-09-23T17:22:11.334Z,100694.41
2022-09-23T17:24:40.448Z,100694.00
2022-09-23T17:27:06.794Z,100703.13
2022-09-23T17:29:33.198Z,100696.00
2022-09-23T17:34:43.450Z,100699.19
2022-09-23T17:37:09.882Z,100701.97
2022-09-23T17:39:39.024Z,100705.91
2022-09-23T17:42:05.384Z,100704.34
2022-09-23T17:44:31.716Z,100705.13
2022-09-23T17:46:58.069Z,100707.91
2022-09-23T17:49:24.413Z,100705.13
2022-09-23T17:51:50.758Z,100700.75
2022-09-23T17:54:17.970Z,100701.16
2022-09-23T17:56:44.321Z,100691.59
2022-09-23T17:59:10.698Z,100703.94
2022-09-23T18:01:37.374Z,100701.97
2022-09-23T18:04:04.322Z,100705.53
2022-09-23T18:06:30.832Z,100697.16
2022-09-23T18:08:57.269Z,100697.97
2022-09-23T18:11:23.696Z,100707.91
2022-09-23T18:13:50.285Z,100713.06
2022-09-23T18:16:16.725Z,100705.09
2022-09-23T18:18:43.256Z,100716.63
2022-09-23T18:21:09.847Z,100723.00
2022-09-23T18:23:36.293Z,100715.44
2022-09-23T18:26:02.873Z,100716.22
2022-09-23T18:28:32.657Z,100722.63
2022-09-23T18:31:04.003Z,100719.00
2022-09-23T18:33:30.484Z,100716.63
2022-09-23T18:35:57.066Z,100717.44
2022-09-23T18:38:23.560Z,100715.03
2022-09-23T18:40:50.002Z,100715.81
2022-09-23T18:43:19.644Z,100726.56
2022-09-23T18:45:46.349Z,100724.56
2022-09-23T18:48:13.782Z,100720.19
2022-09-23T18:50:40.233Z,100726.16
2022-09-23T18:53:06.758Z,100726.94
2022-09-23T18:55:33.239Z,100733.31
2022-09-23T18:57:59.763Z,100732.09
2022-09-23T19:00:26.267Z,100730.13
2022-09-23T19:02:52.978Z,100728.16
2022-09-23T19:08:03.387Z,100722.97
2022-09-23T19:10:29.817Z,100724.56
2022-09-23T19:12:56.423Z,100722.19
2022-09-23T19:15:22.911Z,100718.19
2022-09-23T19:17:49.308Z,100719.78
2022-09-23T19:23:10.469Z,100715.00
2022-09-23T19:25:36.891Z,100721.34
2022-09-23T19:28:03.331Z,100723.72
2022-09-23T19:30:29.832Z,100725.34
2022-09-23T19:32:56.246Z,100721.34
2022-09-23T19:38:16.795Z,100728.13
2022-09-23T19:40:47.685Z,100724.94
2022-09-23T19:43:15.695Z,100726.13
2022-09-23T19:45:42.287Z,100726.91
2022-09-23T19:48:08.888Z,100723.72
2022-09-23T19:53:19.188Z,100725.72
2022-09-23T19:55:45.662Z,100722.53
2022-09-23T20:00:39.583Z,100711.41
2022-09-23T20:03:06.572Z,100715.78
2022-09-23T20:08:16.814Z,100720.91
2022-09-23T20:10:43.206Z,100727.69
2022-09-23T20:13:09.593Z,100715.34
2022-09-23T20:15:35.947Z,100718.94
2022-09-23T20:18:02.317Z,100718.94
2022-09-23T20:23:22.609Z,100723.34
2022-09-23T20:25:49.120Z,100722.97
2022-09-23T20:28:15.448Z,100722.59
2022-09-23T20:30:41.806Z,100711.06
2022-09-23T20:33:08.162Z,100713.84
2022-09-23T20:38:18.390Z,100705.47
2022-09-23T20:40:44.801Z,100701.13
2022-09-23T20:43:11.184Z,100707.47
2022-09-23T20:45:37.519Z,100711.03
2022-09-23T20:48:03.892Z,100709.00
2022-09-23T20:53:14.090Z,100704.19
2022-09-23T20:55:40.423Z,100708.50
2022-09-23T20:58:06.990Z,100694.59
2022-09-23T21:00:33.368Z,100704.16
2022-09-23T21:02:59.704Z,100708.91
2022-09-23T21:08:19.733Z,100705.31
2022-09-23T21:10:46.066Z,100705.31
2022-09-23T21:13:13.279Z,100700.53
2022-09-23T21:15:39.632Z,100706.13
2022-09-23T21:18:06.002Z,100705.72
2022-09-23T21:23:26.195Z,100705.38
2022-09-23T21:25:52.577Z,100699.84
2022-09-23T21:28:18.926Z,100705.44
2022-09-23T21:30:48.575Z,100700.25
2022-09-23T21:33:18.147Z,100701.84
2022-09-23T21:38:29.295Z,100701.03
2022-09-23T21:40:55.662Z,100701.84
2022-09-23T21:43:22.137Z,100703.03
2022-09-23T21:45:48.575Z,100701.41
2022-09-23T21:48:15.117Z,100697.06
2022-09-23T21:53:25.525Z,100703.78
2022-09-23T21:55:51.896Z,100700.56
2022-09-23T21:58:18.240Z,100708.06
2022-09-23T22:00:44.646Z,100702.09
2022-09-23T22:03:11.075Z,100700.13
2022-09-23T22:08:31.396Z,100706.88
2022-09-23T22:10:57.742Z,100706.84
2022-09-23T22:13:24.101Z,100706.53
2022-09-23T22:15:50.509Z,100708.19
2022-09-23T22:18:16.905Z,100708.97
2022-09-23T22:23:36.945Z,100695.44
2022-09-23T22:26:03.689Z,100699.88
2022-09-23T22:28:30.106Z,100695.09
2022-09-23T22:30:56.483Z,100693.47
2022-09-23T22:33:22.820Z,100693.47
2022-09-23T22:38:33.051Z,100694.31
2022-09-23T22:40:59.445Z,100689.16
2022-09-23T22:43:25.786Z,100692.34
2022-09-23T22:45:52.094Z,100689.56
2022-09-23T22:48:18.526Z,100692.75
2022-09-23T22:53:28.745Z,100681.22
2022-09-23T22:55:55.070Z,100680.44
2022-09-23T22:58:31.737Z,100681.66
2022-09-23T23:00:58.799Z,100674.88
2022-09-23T23:03:25.123Z,100667.34
2022-09-23T23:08:46.457Z,100662.56
2022-09-23T23:11:12.874Z,100671.72
2022-09-23T23:13:39.213Z,100669.72
2022-09-23T23:16:06.507Z,100663.34
2022-09-23T23:18:32.880Z,100670.94
2022-09-23T23:23:43.837Z,100662.22
2022-09-23T23:26:11.028Z,100665.38
2022-09-23T23:28:37.396Z,100658.59
2022-09-23T23:31:04.661Z,100657.84
2022-09-23T23:33:31.183Z,100657.84
2022-09-23T23:35:58.376Z,100662.63
2022-09-23T23:38:24.767Z,100653.84
2022-09-23T23:40:53.033Z,100660.19
2022-09-23T23:43:19.527Z,100658.19
2022-09-23T23:45:45.923Z,100660.22
2022-09-23T23:48:14.183Z,100657.03
2022-09-23T23:50:43.321Z,100664.19
2022-09-23T23:53:09.756Z,100666.97
2022-09-23T23:55:38.932Z,100663.38
2022-09-23T23:58:06.139Z,100659.00
